Time;durP1;ratioP1;P1;durP2;ratioP2;P2;SDS_P1;SDS_P2;PMS_P1;PMS_P2;Temp;Humidity;BMP_temperature;BMP_pressure;BME280_temperature;BME280_humidity;BME280_pressure;Samples;Min_cycle;Max_cycle;Signal;HPM_P1;HPM_P2
2023/10/11 00:00:26;;;;;;;10.85;4.15;;;;;;;16.18;87.83;101237.38;5062174;28;20032;-66
2023/10/11 00:02:51;;;;;;;10.68;4.28;;;;;;;16.15;88.32;101251.63;5076473;28;20082;-66
2023/10/11 00:05:17;;;;;;;18.40;4.20;;;;;;;16.07;88.67;101252.53;5079576;28;20547;-66
2023/10/11 00:07:44;;;;;;;12.27;4.60;;;;;;;16.08;88.98;101245.50;5054981;22;20050;-68
2023/10/11 00:10:19;;;;;;;15.82;4.43;;;;;;;16.04;89.51;101245.06;5016640;28;20037;-67
2023/10/11 00:12:44;;;;;;;13.18;4.07;;;;;;;15.99;89.61;101252.63;5001499;28;20045;-68
2023/10/11 00:15:11;;;;;;;14.95;4.07;;;;;;;16.05;89.47;101245.84;5026189;28;20095;-67
2023/10/11 00:17:36;;;;;;;12.85;4.18;;;;;;;16.05;89.65;101251.91;5035332;28;20053;-68
2023/10/11 00:20:19;;;;;;;8.98;4.18;;;;;;;15.96;90.13;101253.81;5021011;28;20037;-67
2023/10/11 00:22:45;;;;;;;;;;;;;;;16.02;89.61;101254.09;5007891;28;20187;-68
2023/10/11 00:25:23;;;;;;;13.05;3.92;;;;;;;15.97;90.10;101257.22;5006099;28;20149;-67
2023/10/11 00:27:49;;;;;;;12.27;4.35;;;;;;;15.91;90.59;101258.75;5022055;28;20044;-67
2023/10/11 00:30:17;;;;;;;11.68;4.18;;;;;;;15.96;90.72;101256.41;5009028;28;20509;-67
2023/10/11 00:32:45;;;;;;;13.00;4.75;;;;;;;15.93;91.05;101245.50;4995339;28;20052;-68
2023/10/11 00:35:18;;;;;;;15.65;5.10;;;;;;;16.02;90.93;101244.41;5011688;28;20061;-68
2023/10/11 00:37:49;;;;;;;8.95;4.00;;;;;;;15.99;90.90;101230.88;5025246;28;20038;-67
2023/10/11 00:40:17;;;;;;;12.95;4.32;;;;;;;15.98;90.57;101232.72;5009110;28;20037;-67
2023/10/11 00:42:43;;;;;;;11.27;4.90;;;;;;;16.07;90.45;101228.19;5007592;28;20061;-68
2023/10/11 00:45:09;;;;;;;19.25;4.43;;;;;;;16.10;90.33;101233.06;5005821;28;20060;-67
2023/10/11 00:47:40;;;;;;;7.25;3.72;;;;;;;16.10;90.43;101236.47;5038182;28;20087;-68
2023/10/11 00:50:14;;;;;;;11.73;4.60;;;;;;;16.05;90.63;101220.53;5040651;28;20619;-68
2023/10/11 00:52:45;;;;;;;11.77;4.43;;;;;;;16.00;91.19;101216.84;5024940;28;20342;-68
2023/10/11 00:55:17;;;;;;;11.00;4.68;;;;;;;15.97;91.46;101218.00;5006902;28;20037;-67
2023/10/11 00:57:49;;;;;;;19.35;5.10;;;;;;;15.98;91.60;101209.16;5019651;28;20063;-67
2023/10/11 01:00:16;;;;;;;10.73;3.80;;;;;;;16.07;91.10;101220.34;5005214;28;20051;-67
2023/10/11 01:02:45;;;;;;;10.95;4.53;;;;;;;15.99;92.04;101213.38;5005057;28;20499;-68
2023/10/11 01:05:12;;;;;;;14.95;4.82;;;;;;;15.96;92.21;101216.38;5020345;28;20040;-67
2023/10/11 01:07:40;;;;;;;15.80;3.97;;;;;;;16.10;91.38;101220.78;5019389;28;20137;-67
2023/10/11 01:10:07;;;;;;;17.50;4.82;;;;;;;16.21;90.85;101216.88;5018251;28;20025;-68
2023/10/11 01:12:33;;;;;;;18.20;5.60;;;;;;;16.12;91.66;101223.22;5003094;28;20033;-68
2023/10/11 01:14:59;;;;;;;13.35;5.13;;;;;;;16.08;91.59;101206.25;5004153;28;20041;-67
2023/10/11 01:17:26;;;;;;;13.63;4.95;;;;;;;16.10;91.66;101214.75;5021516;28;20072;-69
2023/10/11 01:19:52;;;;;;;14.88;4.60;;;;;;;16.07;91.68;101212.50;5009701;28;20129;-67
2023/10/11 01:22:18;;;;;;;17.33;4.95;;;;;;;16.04;92.27;101211.03;4994996;28;20120;-67
2023/10/11 01:24:47;;;;;;;15.90;5.05;;;;;;;16.18;91.36;101203.38;5038420;28;20026;-67
2023/10/11 01:27:15;;;;;;;18.38;4.65;;;;;;;16.07;91.84;101208.09;5026975;28;20029;-67
2023/10/11 01:29:40;;;;;;;13.02;4.40;;;;;;;16.06;92.02;101206.44;5009607;28;20037;-67
2023/10/11 01:32:06;;;;;;;16.02;4.60;;;;;;;16.12;91.69;101205.75;5008572;28;20128;-67
2023/10/11 01:34:32;;;;;;;20.33;4.75;;;;;;;16.15;91.39;101199.31;5002278;28;20130;-67
2023/10/11 01:36:58;;;;;;;13.70;4.60;;;;;;;16.06;91.75;101201.22;5010393;28;20120;-67
2023/10/11 01:39:24;;;;;;;15.38;5.18;;;;;;;16.14;91.44;101195.91;5026647;28;20161;-68
2023/10/11 01:41:54;;;;;;;15.73;4.78;;;;;;;16.12;91.54;101192.66;5041495;28;20369;-67
2023/10/11 01:44:22;;;;;;;14.63;4.35;;;;;;;16.06;92.09;101189.94;5006885;28;20081;-67
2023/10/11 01:46:48;;;;;;;14.50;5.45;;;;;;;16.14;91.27;101188.06;5039034;28;20029;-68
2023/10/11 01:49:14;;;;;;;10.68;4.53;;;;;;;16.10;91.55;101192.00;5022633;28;20107;-67
2023/10/11 01:51:46;;;;;;;22.75;5.70;;;;;;;16.11;91.21;101196.25;4998804;28;20041;-68
2023/10/11 01:54:12;;;;;;;19.23;4.43;;;;;;;16.15;90.70;101192.28;5023708;28;20037;-68
2023/10/11 01:56:38;;;;;;;16.35;5.10;;;;;;;16.15;91.03;101189.66;5005291;28;20037;-68
2023/10/11 01:59:04;;;;;;;13.95;4.45;;;;;;;16.09;91.01;101182.56;5026113;28;20128;-67
2023/10/11 02:01:38;;;;;;;18.63;5.07;;;;;;;16.08;91.07;101178.28;5006662;28;20120;-68
2023/10/11 02:04:17;;;;;;;19.73;5.38;;;;;;;16.07;91.06;101166.22;5037401;28;20041;-67
2023/10/11 02:06:43;;;;;;;18.67;5.05;;;;;;;16.02;91.34;101171.19;5022735;28;20025;-67
2023/10/11 02:09:10;;;;;;;12.48;4.45;;;;;;;16.09;90.71;101166.06;5036840;28;20522;-68
2023/10/11 02:11:36;;;;;;;15.35;5.10;;;;;;;16.15;90.23;101175.78;5020246;28;20092;-68
2023/10/11 02:14:01;;;;;;;18.88;5.57;;;;;;;16.04;90.55;101168.41;5024990;28;20368;-67
2023/10/11 02:16:32;;;;;;;15.52;5.07;;;;;;;16.09;90.04;101172.09;5006474;28;20052;-68
2023/10/11 02:19:00;;;;;;;13.93;4.53;;;;;;;16.03;90.49;101167.59;5008877;28;20041;-67
2023/10/11 02:21:29;;;;;;;13.05;5.10;;;;;;;16.04;90.01;101155.31;5026782;28;20084;-67
2023/10/11 02:23:56;;;;;;;21.92;5.70;;;;;;;16.02;90.26;101157.31;5020281;28;20046;-68
2023/10/11 02:26:29;;;;;;;15.18;5.45;;;;;;;15.94;90.65;101160.84;5009027;28;20033;-68
2023/10/11 02:28:55;;;;;;;13.15;4.80;;;;;;;15.87;90.82;101152.09;5021662;28;20037;-68
2023/10/11 02:31:24;;;;;;;18.27;5.00;;;;;;;15.82;91.08;101155.25;5007485;28;20367;-67
2023/10/11 02:33:51;;;;;;;13.63;4.53;;;;;;;15.78;91.00;101148.75;5035221;28;20073;-68
2023/10/11 02:36:18;;;;;;;18.87;5.07;;;;;;;15.82;91.04;101144.78;5025566;28;20116;-67
2023/10/11 02:38:47;;;;;;;15.43;5.25;;;;;;;15.75;91.38;101147.31;5021410;28;20046;-67
2023/10/11 02:41:14;;;;;;;17.33;5.13;;;;;;;15.78;91.11;101154.00;5022385;28;20510;-67
2023/10/11 02:43:49;;;;;;;20.25;5.15;;;;;;;15.74;91.09;101147.50;5017207;28;20029;-68
2023/10/11 02:46:23;;;;;;;15.98;5.07;;;;;;;15.73;90.99;101144.09;5004664;28;20128;-67
2023/10/11 02:48:49;;;;;;;13.80;4.88;;;;;;;15.58;91.51;101149.28;5019501;28;20030;-67
2023/10/11 02:51:17;;;;;;;18.10;4.68;;;;;;;15.53;91.67;101137.75;5008669;28;20034;-67
2023/10/11 02:53:46;;;;;;;14.35;5.10;;;;;;;15.61;91.67;101139.47;5020773;28;20071;-67
2023/10/11 02:56:13;;;;;;;11.55;4.38;;;;;;;15.52;91.61;101141.34;5007657;28;20018;-67
2023/10/11 02:58:41;;;;;;;11.27;5.13;;;;;;;15.45;91.91;101143.88;5002345;28;20033;-67
2023/10/11 03:01:22;;;;;;;21.50;5.50;;;;;;;15.51;91.28;101143.16;4989588;28;20094;-67
2023/10/11 03:03:52;;;;;;;13.80;5.13;;;;;;;15.52;90.80;101138.72;5001223;28;20097;-67
2023/10/11 03:06:21;;;;;;;15.90;5.00;;;;;;;15.50;90.99;101140.72;4984655;28;21794;-68
2023/10/11 03:08:47;;;;;;;14.30;5.38;;;;;;;15.54;90.34;101128.94;5026776;28;20041;-68
2023/10/11 03:11:18;;;;;;;18.98;4.65;;;;;;;15.57;90.13;101131.97;5019948;28;20062;-67
2023/10/11 03:13:44;;;;;;;13.43;5.07;;;;;;;15.55;89.58;101135.75;5054630;28;20044;-68
2023/10/11 03:16:11;;;;;;;11.15;4.57;;;;;;;15.48;90.62;101134.84;5022270;28;20045;-68
2023/10/11 03:18:39;;;;;;;17.23;4.80;;;;;;;15.43;90.54;101132.00;5026348;28;20136;-67
2023/10/11 03:21:32;;;;;;;15.32;4.40;;;;;;;15.47;90.08;101135.88;5033542;28;20041;-67
2023/10/11 03:24:04;;;;;;;15.43;5.17;;;;;;;15.46;89.78;101142.88;5035145;28;20220;-68
2023/10/11 03:28:58;;;;;;;18.55;4.97;;;;;;;15.41;89.50;101129.56;5021500;28;20034;-68
2023/10/11 03:31:29;;;;;;;18.30;5.30;;;;;;;15.38;90.01;101127.28;5022911;28;20025;-67
2023/10/11 03:33:59;;;;;;;19.55;5.05;;;;;;;15.37;90.11;101130.91;5052811;28;20041;-67
2023/10/11 03:36:32;;;;;;;16.33;5.18;;;;;;;15.36;90.05;101137.13;5020908;28;20040;-68
2023/10/11 03:38:58;;;;;;;;;;;;;;;15.31;90.03;101129.81;5022153;28;20042;-68
2023/10/11 03:41:30;;;;;;;13.57;4.68;;;;;;;15.25;90.13;101121.88;5025152;28;19936;-68
2023/10/11 03:44:00;;;;;;;12.60;4.72;;;;;;;15.28;90.15;101117.13;5019593;28;20038;-67
2023/10/11 03:46:28;;;;;;;14.23;5.28;;;;;;;15.25;89.92;101109.63;5019864;28;20029;-68
2023/10/11 03:49:03;;;;;;;18.23;4.90;;;;;;;15.28;89.86;101104.06;5050580;28;20021;-67
2023/10/11 03:51:29;;;;;;;13.05;4.78;;;;;;;15.25;89.35;101106.22;5023032;28;20037;-67
2023/10/11 03:53:54;;;;;;;23.95;5.03;;;;;;;15.35;88.35;101094.50;5019994;28;20038;-68
2023/10/11 03:56:20;;;;;;;12.85;4.60;;;;;;;15.26;89.44;101100.00;5019847;28;20652;-68
2023/10/11 03:58:50;;;;;;;11.50;4.68;;;;;;;15.22;89.84;101102.16;5021316;28;20399;-67
2023/10/11 04:03:43;;;;;;;18.73;5.22;;;;;;;15.21;88.92;101112.78;5020688;28;20132;-67
2023/10/11 04:06:15;;;;;;;11.68;5.13;;;;;;;15.16;89.26;101108.91;5020052;28;20029;-68
2023/10/11 04:08:56;;;;;;;13.75;4.82;;;;;;;15.13;89.30;101103.22;5035327;28;20535;-67
2023/10/11 04:11:30;;;;;;;14.75;5.63;;;;;;;15.08;89.67;101108.97;5022256;28;20028;-68
2023/10/11 04:13:57;;;;;;;12.30;4.68;;;;;;;15.07;89.81;101096.91;5022599;28;20036;-67
2023/10/11 04:16:23;;;;;;;8.90;4.85;;;;;;;15.09;89.31;101112.41;5035086;28;20038;-67
2023/10/11 04:18:52;;;;;;;13.35;4.40;;;;;;;15.06;89.16;101110.94;5034750;28;20034;-67
2023/10/11 04:21:38;;;;;;;22.13;5.10;;;;;;;15.14;88.04;101115.28;5025749;28;20088;-68
2023/10/11 04:24:06;;;;;;;13.18;4.63;;;;;;;15.09;88.35;101125.47;5020544;28;20046;-68
2023/10/11 04:26:34;;;;;;;19.85;4.43;;;;;;;15.09;88.28;101126.28;5054673;28;20572;-67
2023/10/11 04:29:06;;;;;;;13.10;4.43;;;;;;;15.01;88.76;101134.16;5020218;28;20037;-67
2023/10/11 04:31:36;;;;;;;12.60;4.47;;;;;;;15.02;88.97;101138.41;5036651;28;20529;-67
2023/10/11 04:34:11;;;;;;;11.63;4.28;;;;;;;14.95;89.00;101129.66;5031563;28;20079;-68
2023/10/11 04:36:42;;;;;;;15.43;4.75;;;;;;;14.95;88.76;101133.06;5021666;28;20995;-68
2023/10/11 04:39:16;;;;;;;10.82;5.07;;;;;;;14.94;88.82;101126.25;5034054;28;20063;-68
2023/10/11 04:41:49;;;;;;;15.00;5.20;;;;;;;14.91;88.76;101129.19;5021181;28;20088;-68
2023/10/11 04:44:17;;;;;;;11.68;5.18;;;;;;;14.87;88.69;101127.94;5046598;28;20111;-67
2023/10/11 04:46:44;;;;;;;17.55;4.45;;;;;;;14.87;88.93;101125.31;5018711;28;20491;-68
2023/10/11 04:49:18;;;;;;;10.32;4.88;;;;;;;14.86;88.87;101138.53;5041210;28;20064;-68
2023/10/11 04:51:46;;;;;;;9.98;4.05;;;;;;;14.81;89.41;101139.09;5036221;28;20565;-68
2023/10/11 04:54:18;;;;;;;10.27;3.92;;;;;;;14.75;89.67;101140.59;5016863;28;20049;-68
2023/10/11 04:59:13;;;;;;;8.65;4.55;;;;;;;14.72;88.98;101127.88;5020696;28;20046;-67
2023/10/11 05:04:27;;;;;;;19.95;5.00;;;;;;;14.73;89.26;101150.41;5017801;28;20435;-68
2023/10/11 05:06:53;;;;;;;16.15;4.50;;;;;;;14.67;89.55;101142.44;5017889;28;20503;-68
2023/10/11 05:09:38;;;;;;;9.65;4.03;;;;;;;14.66;89.49;101146.88;5025246;28;20037;-67
2023/10/11 05:12:19;;;;;;;16.08;4.88;;;;;;;14.67;89.42;101142.44;5020925;28;20088;-67
2023/10/11 05:19:47;;;;;;;15.75;4.18;;;;;;;14.63;88.23;101130.75;5049689;28;20045;-68
2023/10/11 05:22:23;;;;;;;17.85;6.03;;;;;;;14.67;87.76;101122.38;5021936;28;20044;-67
2023/10/11 05:32:32;;;;;;;10.73;3.80;;;;;;;14.63;87.43;101121.09;5016659;28;20030;-68
2023/10/11 05:35:19;;;;;;;13.90;5.50;;;;;;;14.62;87.64;101118.66;5020373;28;20045;-67
2023/10/11 05:51:28;;;;;;;13.40;5.80;;;;;;;14.76;86.37;101123.13;5019288;28;20544;-68
2023/10/11 05:53:54;;;;;;;15.57;4.40;;;;;;;14.73;86.04;101120.84;5021435;28;20049;-67
2023/10/11 05:56:23;;;;;;;12.57;4.43;;;;;;;14.86;84.94;101104.59;5020731;28;20028;-68
2023/10/11 05:58:49;;;;;;;13.30;4.75;;;;;;;14.75;85.34;101111.88;5006436;28;20033;-67
2023/10/11 06:01:21;;;;;;;14.48;4.40;;;;;;;14.79;85.29;101107.13;5019707;28;20029;-67
2023/10/11 06:03:56;;;;;;;13.27;4.18;;;;;;;14.75;85.61;101109.28;5039620;28;20132;-67
2023/10/11 06:09:17;;;;;;;10.60;3.72;;;;;;;14.92;84.53;101099.50;5023310;28;20041;-68
2023/10/11 06:11:49;;;;;;;12.85;4.35;;;;;;;14.98;84.64;101108.44;5022370;28;20395;-68
2023/10/11 06:14:17;;;;;;;18.85;7.05;;;;;;;14.97;83.95;101107.63;5023541;28;20030;-68
2023/10/11 06:16:49;;;;;;;22.88;9.32;;;;;;;15.03;84.81;101105.28;5031521;28;20452;-68
2023/10/11 06:19:16;;;;;;;11.90;4.57;;;;;;;15.01;84.69;101120.31;5022546;28;20041;-67
2023/10/11 06:24:34;;;;;;;13.38;4.20;;;;;;;15.04;83.63;101112.13;5025231;28;20042;-67
2023/10/11 06:29:37;;;;;;;13.05;4.15;;;;;;;15.12;84.01;101131.13;5023608;28;20038;-68
2023/10/11 06:32:10;;;;;;;14.95;3.90;;;;;;;15.24;84.06;101134.13;5009462;28;20125;-67
2023/10/11 06:34:36;;;;;;;18.15;4.15;;;;;;;15.24;83.37;101134.13;5024407;28;20034;-67
2023/10/11 06:37:02;;;;;;;17.88;4.80;;;;;;;15.29;83.36;101137.00;5026187;28;21685;-67
2023/10/11 06:40:08;;;;;;;20.08;3.90;;;;;;;15.29;83.95;101137.00;5021822;28;20050;-67
2023/10/11 06:44:47;;;;;;;15.52;4.07;;;;;;;15.45;82.55;101146.50;5023694;28;20037;-67
2023/10/11 06:47:13;;;;;;;13.45;4.03;;;;;;;15.57;81.86;101134.59;5043595;28;20033;-67
2023/10/11 06:49:44;;;;;;;9.07;3.85;;;;;;;15.63;81.90;101143.50;5026916;28;20533;-67
2023/10/11 06:52:17;;;;;;;10.02;3.35;;;;;;;15.79;80.93;101142.56;5039345;28;20043;-68
2023/10/11 06:54:47;;;;;;;11.13;3.88;;;;;;;15.90;79.79;101149.94;5021125;28;20044;-67
2023/10/11 06:57:19;;;;;;;11.23;3.60;;;;;;;16.03;79.45;101143.22;5022349;28;20034;-67
2023/10/11 06:59:52;;;;;;;19.52;4.07;;;;;;;16.29;77.51;101138.31;5025386;28;20034;-66
2023/10/11 07:02:18;;;;;;;29.50;5.05;;;;;;;16.34;77.52;101135.13;5037338;28;20033;-68
2023/10/11 07:04:50;;;;;;;12.60;3.55;;;;;;;16.37;77.55;101132.16;5022457;28;20041;-67
2023/10/11 07:07:19;;;;;;;;;;;;;;;16.47;76.90;101129.22;5037986;28;20483;-67
2023/10/11 07:09:56;;;;;;;10.23;4.40;;;;;;;16.62;76.37;101127.34;5024468;28;19917;-67
2023/10/11 07:12:39;;;;;;;14.68;4.82;;;;;;;16.80;75.62;101126.91;5038641;28;20120;-67
2023/10/11 07:15:09;;;;;;;13.75;3.25;;;;;;;17.01;74.56;101125.25;5034507;28;20100;-67
2023/10/11 07:17:35;;;;;;;11.13;4.05;;;;;;;17.23;73.51;101124.19;5023247;28;20115;-67
2023/10/11 07:20:12;;;;;;;8.65;3.60;;;;;;;17.49;72.28;101134.03;5022286;28;20060;-67
2023/10/11 07:22:39;;;;;;;12.65;3.90;;;;;;;17.59;71.73;101122.38;5027305;28;20037;-68
2023/10/11 07:25:36;;;;;;;9.88;3.75;;;;;;;17.81;70.09;101120.47;5023508;28;20042;-67
2023/10/11 07:27:53;;;;;;;13.50;3.92;;;;;;;17.94;69.84;101117.13;5024474;28;20048;-67
2023/10/11 07:30:19;;;;;;;15.82;4.25;;;;;;;18.16;68.39;101118.59;5027668;28;20029;-67
2023/10/11 07:32:45;;;;;;;18.23;3.97;;;;;;;18.27;68.19;101107.53;5051553;28;21090;-68
2023/10/11 07:35:19;;;;;;;9.18;3.70;;;;;;;18.42;68.54;101117.00;5039422;28;20029;-68
2023/10/11 07:37:45;;;;;;;14.05;3.88;;;;;;;18.52;67.51;101111.41;5025746;28;20042;-68
2023/10/11 07:40:18;;;;;;;19.63;4.03;;;;;;;18.75;67.05;101119.66;5024679;28;20051;-68
2023/10/11 07:42:44;;;;;;;10.63;3.90;;;;;;;18.76;66.89;101121.31;5051868;28;20049;-68
2023/10/11 07:45:12;;;;;;;11.15;3.78;;;;;;;19.10;66.48;101124.75;5022130;28;20380;-68
2023/10/11 07:47:48;;;;;;;14.30;3.95;;;;;;;19.31;65.05;101128.13;5021316;28;20044;-68
2023/10/11 07:50:14;;;;;;;10.30;3.55;;;;;;;19.45;63.98;101132.34;5024240;28;20021;-68
2023/10/11 07:52:43;;;;;;;8.85;3.40;;;;;;;19.49;64.04;101127.47;5021591;28;20057;-68
2023/10/11 07:55:12;;;;;;;15.00;3.92;;;;;;;19.70;63.34;101129.03;5020326;28;20120;-68
2023/10/11 07:57:44;;;;;;;8.32;3.05;;;;;;;19.73;63.33;101123.38;5021874;28;20037;-68
2023/10/11 08:00:17;;;;;;;12.20;4.25;;;;;;;19.79;62.71;101127.81;5056808;28;20049;-68
2023/10/11 08:02:55;;;;;;;12.75;4.15;;;;;;;19.84;62.63;101130.63;5054794;28;20049;-68
2023/10/11 08:05:25;;;;;;;16.13;5.65;;;;;;;19.86;62.58;101123.31;5026019;28;20041;-68
2023/10/11 08:07:55;;;;;;;9.13;4.00;;;;;;;19.98;61.72;101129.53;5039078;28;20080;-68
2023/10/11 08:10:33;;;;;;;10.70;3.42;;;;;;;20.00;61.12;101127.50;5012039;28;20037;-68
2023/10/11 08:13:01;;;;;;;9.98;3.72;;;;;;;20.26;60.66;101125.72;5049656;28;20049;-68
2023/10/11 08:15:26;;;;;;;19.02;3.53;;;;;;;20.52;60.83;101132.66;5022401;28;20037;-69
2023/10/11 08:17:52;;;;;;;9.45;3.90;;;;;;;20.53;60.26;101141.34;5040378;28;20042;-68
2023/10/11 08:20:18;;;;;;;12.15;4.28;;;;;;;20.85;58.84;101149.25;5028994;28;20045;-67
2023/10/11 08:22:47;;;;;;;13.18;4.00;;;;;;;21.07;58.71;101139.13;5055348;28;20045;-68
2023/10/11 08:25:15;;;;;;;16.65;3.92;;;;;;;21.20;58.40;101145.06;5022623;28;21142;-68
2023/10/11 08:27:41;;;;;;;12.27;3.70;;;;;;;21.13;57.26;101149.59;5026760;28;20029;-68
2023/10/11 08:30:09;;;;;;;12.95;3.53;;;;;;;21.09;57.98;101152.88;5025746;28;20045;-67
2023/10/11 08:32:42;;;;;;;16.00;4.18;;;;;;;21.14;57.99;101156.47;5024492;28;20045;-69
2023/10/11 08:35:09;;;;;;;17.30;3.90;;;;;;;21.35;57.63;101159.72;5040446;28;20037;-68
2023/10/11 08:37:37;;;;;;;12.18;3.72;;;;;;;21.15;57.07;101149.38;5054835;28;20042;-68
2023/10/11 08:40:19;;;;;;;10.60;4.30;;;;;;;21.19;57.20;101158.44;5022818;28;20060;-68
2023/10/11 08:42:50;;;;;;;12.23;4.10;;;;;;;21.41;57.32;101158.06;5020301;28;20099;-68
2023/10/11 08:45:29;;;;;;;9.25;3.90;;;;;;;21.42;56.74;101149.09;5025860;28;20057;-67
2023/10/11 08:47:57;;;;;;;12.27;3.75;;;;;;;21.41;57.30;101145.66;5021744;28;20034;-68
2023/10/11 08:50:26;;;;;;;17.33;3.75;;;;;;;21.15;56.57;101152.84;5021161;28;20034;-67
2023/10/11 08:52:54;;;;;;;9.05;3.97;;;;;;;21.42;56.94;101146.47;5040667;28;20380;-68
2023/10/11 08:55:24;;;;;;;13.80;3.63;;;;;;;21.32;57.40;101141.69;5052781;28;20033;-67
2023/10/11 08:57:50;;;;;;;11.27;3.78;;;;;;;21.40;57.24;101138.78;5024917;28;20140;-68
2023/10/11 09:00:28;;;;;;;13.23;4.00;;;;;;;21.42;57.31;101144.66;5018946;28;20072;-67
2023/10/11 09:02:58;;;;;;;14.85;3.80;;;;;;;21.41;57.18;101145.66;5037895;28;20037;-68
2023/10/11 09:05:42;;;;;;;8.25;3.88;;;;;;;21.15;57.68;101144.94;5021705;28;20037;-68
2023/10/11 09:08:20;;;;;;;11.85;3.53;;;;;;;21.02;58.05;101152.97;5019767;28;20034;-68
2023/10/11 09:10:49;;;;;;;15.45;4.20;;;;;;;20.86;57.65;101149.03;5037630;28;20112;-67
2023/10/11 09:13:25;;;;;;;10.88;4.00;;;;;;;20.86;59.26;101150.88;5023121;28;20041;-67
2023/10/11 09:15:54;;;;;;;17.17;4.40;;;;;;;20.94;59.55;101153.22;5054194;28;20041;-68
2023/10/11 09:18:20;;;;;;;18.13;4.47;;;;;;;21.05;59.75;101154.34;5002846;28;20046;-68
2023/10/11 09:21:08;;;;;;;8.73;4.00;;;;;;;20.99;60.17;101140.22;5022917;28;20461;-67
2023/10/11 09:23:38;;;;;;;11.82;4.00;;;;;;;21.14;59.51;101145.94;5047100;28;20118;-67
2023/10/11 09:26:05;;;;;;;12.95;3.70;;;;;;;21.18;60.29;101141.84;5025057;28;20037;-67
2023/10/11 09:28:34;;;;;;;15.48;5.18;;;;;;;21.28;60.12;101135.25;5022443;28;20034;-67
2023/10/11 09:31:09;;;;;;;15.52;4.43;;;;;;;20.96;59.27;101133.56;5020945;28;20037;-67
2023/10/11 09:33:40;;;;;;;10.60;3.88;;;;;;;20.94;60.15;101143.47;5039455;28;20045;-67
2023/10/11 09:36:09;;;;;;;9.55;4.05;;;;;;;21.04;61.65;101147.44;5042083;28;20502;-67
2023/10/11 09:38:41;;;;;;;11.45;4.75;;;;;;;21.00;62.38;101141.81;5026984;28;20049;-68
2023/10/11 09:41:10;;;;;;;11.60;4.38;;;;;;;21.00;61.55;101142.63;5026736;28;20116;-67
2023/10/11 09:43:46;;;;;;;17.17;4.35;;;;;;;21.08;60.76;101140.72;5025878;28;20041;-67
2023/10/11 09:46:12;;;;;;;10.27;3.92;;;;;;;21.13;60.68;101148.78;5024831;28;20455;-67
2023/10/11 09:48:40;;;;;;;9.85;3.50;;;;;;;21.10;60.13;101155.31;5025157;28;20070;-67
2023/10/11 09:51:08;;;;;;;14.85;4.13;;;;;;;21.14;61.59;101153.84;5022264;28;20038;-66
2023/10/11 09:53:41;;;;;;;17.92;5.00;;;;;;;21.23;60.87;101154.38;5037604;28;20368;-67
2023/10/11 09:56:23;;;;;;;15.05;3.78;;;;;;;21.29;60.79;101163.25;5041126;28;20033;-67
2023/10/11 09:59:10;;;;;;;12.57;3.67;;;;;;;21.41;61.01;101156.22;5037486;28;20095;-67
2023/10/11 10:02:07;;;;;;;14.30;4.68;;;;;;;21.57;60.97;101142.47;5026798;28;20060;-67
2023/10/11 10:05:05;;;;;;;14.18;4.15;;;;;;;21.63;59.64;101146.06;5000962;28;20506;-67
2023/10/11 10:10:08;;;;;;;17.13;4.30;;;;;;;21.61;58.96;101147.31;5027776;28;20044;-67
2023/10/11 10:12:55;;;;;;;10.43;3.85;;;;;;;21.61;59.89;101155.22;5026164;28;20033;-67
2023/10/11 10:15:23;;;;;;;11.63;4.18;;;;;;;21.63;59.20;101150.53;5008157;28;20565;-67
2023/10/11 10:17:57;;;;;;;19.25;4.80;;;;;;;21.74;60.16;101163.00;5027560;28;20535;-67
2023/10/11 10:21:02;;;;;;;10.88;3.83;;;;;;;21.52;59.11;101160.78;5055922;28;20041;-68
2023/10/11 10:23:21;;;;;;;17.92;4.80;;;;;;;21.53;59.27;101162.41;5006311;28;20056;-67
2023/10/11 10:26:13;;;;;;;15.00;4.15;;;;;;;21.61;59.65;101171.06;5022057;28;20571;-67
2023/10/11 10:28:51;;;;;;;17.17;4.80;;;;;;;21.54;58.99;101160.56;5026232;28;20042;-69
2023/10/11 10:31:18;;;;;;;15.18;4.13;;;;;;;21.49;59.71;101155.97;5041219;28;20045;-67
2023/10/11 10:33:50;;;;;;;18.00;4.22;;;;;;;21.63;60.37;101169.00;5024720;28;20161;-68
2023/10/11 10:36:21;;;;;;;17.10;4.05;;;;;;;21.76;59.24;101160.94;5057975;28;20034;-68
2023/10/11 10:41:36;;;;;;;19.77;4.53;;;;;;;21.83;58.56;101142.38;5027603;28;20052;-67
2023/10/11 10:44:17;;;;;;;16.50;4.28;;;;;;;21.74;59.01;101153.22;5036868;28;20029;-67
2023/10/11 10:46:59;;;;;;;11.90;4.25;;;;;;;21.75;59.57;101149.56;5028377;28;20057;-67
2023/10/11 10:49:54;;;;;;;16.67;3.97;;;;;;;21.70;59.69;101145.97;5037361;28;20067;-67
2023/10/11 10:52:35;;;;;;;23.83;4.68;;;;;;;21.78;58.76;101143.84;5024231;28;20581;-67
2023/10/11 10:55:01;;;;;;;15.27;4.32;;;;;;;21.59;60.13;101150.19;5008269;28;20052;-66
2023/10/11 10:57:31;;;;;;;18.98;5.40;;;;;;;21.65;60.37;101153.75;5023019;28;20042;-67
2023/10/11 11:00:05;;;;;;;19.70;4.20;;;;;;;21.65;61.13;101149.28;5020217;28;20770;-67
2023/10/11 11:02:37;;;;;;;23.23;4.60;;;;;;;21.64;60.13;101142.38;5024775;28;20037;-68
2023/10/11 11:05:13;;;;;;;19.45;4.65;;;;;;;21.63;61.09;101146.06;5026889;28;20503;-67
2023/10/11 11:07:49;;;;;;;10.23;3.92;;;;;;;21.59;60.97;101144.91;5022947;28;20531;-67
2023/10/11 11:10:19;;;;;;;19.85;4.82;;;;;;;21.57;61.10;101139.84;5023059;28;20502;-67
2023/10/11 11:12:45;;;;;;;13.30;4.88;;;;;;;21.63;62.44;101140.00;5020563;28;20045;-67
2023/10/11 11:15:13;;;;;;;13.70;4.30;;;;;;;21.80;63.48;101141.00;5023464;28;20034;-67
2023/10/11 11:18:05;;;;;;;17.77;4.65;;;;;;;21.86;61.50;101126.91;5025877;28;20046;-67
2023/10/11 11:20:32;;;;;;;16.67;4.18;;;;;;;21.82;61.50;101122.28;5022442;28;20084;-67
2023/10/11 11:22:57;;;;;;;12.68;4.10;;;;;;;21.79;61.67;101120.88;5009932;28;20128;-66
2023/10/11 11:28:17;;;;;;;23.25;5.15;;;;;;;21.99;59.73;101125.13;5023108;28;20223;-67
2023/10/11 11:30:52;;;;;;;23.85;4.88;;;;;;;22.06;60.34;101128.47;5024250;28;20034;-67
2023/10/11 11:33:35;;;;;;;18.83;4.30;;;;;;;21.80;59.64;101125.16;5024059;28;20095;-66
2023/10/11 11:36:06;;;;;;;24.40;4.72;;;;;;;21.95;59.57;101128.19;5022928;28;20033;-67
2023/10/11 11:38:37;;;;;;;18.98;4.50;;;;;;;21.97;60.54;101133.25;5022710;28;20045;-67
2023/10/11 11:41:05;;;;;;;17.52;4.70;;;;;;;21.95;60.81;101122.91;5056308;28;20076;-67
2023/10/11 11:43:38;;;;;;;19.02;4.43;;;;;;;22.14;59.79;101120.22;5026570;28;20052;-67
2023/10/11 11:46:03;;;;;;;21.13;5.68;;;;;;;22.08;60.22;101115.84;5022095;28;20120;-67
2023/10/11 11:48:40;;;;;;;17.27;4.22;;;;;;;22.05;60.61;101114.44;5021723;28;20049;-67
2023/10/11 11:51:06;;;;;;;17.67;3.95;;;;;;;22.04;61.41;101104.94;5054156;28;20410;-67
2023/10/11 11:53:31;;;;;;;24.23;4.78;;;;;;;22.04;60.05;101099.66;5022874;28;20033;-67
2023/10/11 11:55:58;;;;;;;23.05;4.68;;;;;;;21.95;59.84;101104.44;5037536;28;20249;-67
2023/10/11 11:58:23;;;;;;;26.48;5.45;;;;;;;22.01;59.89;101105.38;5021229;28;20101;-67
2023/10/11 12:03:52;;;;;;;28.00;5.43;;;;;;;22.30;60.27;101103.78;5017453;28;20407;-67
2023/10/11 12:06:26;;;;;;;25.20;4.40;;;;;;;22.22;61.29;101097.97;5038791;28;20216;-67
2023/10/11 12:08:59;;;;;;;17.98;4.75;;;;;;;22.23;61.33;101095.13;5008643;28;20049;-67
2023/10/11 12:11:28;;;;;;;12.52;4.55;;;;;;;;;;5040631;28;20034;-67
2023/10/11 12:13:58;;;;;;;24.13;4.07;;;;;;;22.28;58.71;101084.72;5052282;28;20128;-67
2023/10/11 12:16:24;;;;;;;18.67;4.45;;;;;;;22.45;60.80;101087.50;5038416;28;20519;-67
2023/10/11 12:18:58;;;;;;;21.17;4.18;;;;;;;22.37;61.17;101085.16;5036433;28;20030;-67
2023/10/11 12:21:25;;;;;;;23.42;5.20;;;;;;;22.33;61.80;101084.03;5037351;28;20472;-67
2023/10/11 12:23:50;;;;;;;23.15;5.10;;;;;;;22.39;60.75;101069.09;5020330;28;20515;-67
2023/10/11 12:26:17;;;;;;;27.90;4.70;;;;;;;22.44;60.50;101069.22;5059924;22;20060;-68
2023/10/11 12:28:46;;;;;;;22.17;4.68;;;;;;;22.37;60.87;101064.03;5080663;28;20056;-66
2023/10/11 12:31:11;;;;;;;18.60;4.50;;;;;;;22.47;59.94;101069.56;5065821;28;20031;-66
2023/10/11 12:33:37;;;;;;;22.95;5.07;;;;;;;22.54;61.17;101059.69;5062590;28;20043;-66